Indianapolis, Indiana
Traffic Map
Current Weather Conditions
Indianapolis, Indiana
Clear
Clear
26°
Feels Like: 27°
Wind Chill: 26° Ceiling: Unl
Heat Index: 27° Visibility: 10mi
Dew Point: 21° Wind: 6mph
Humidity: 76% Direction: 90° (E)
Pressure: 30.16in Gusts: 0mph
Raw Report DataKIND 300454Z 09005KT 10SM CLR 26/21 A3016 RMK AO2 SLP206 T02560211 403220206
Traffic Incident Summary
Active as of:
Severity:
Category:
InformationThere was an issue retrieving the traffic information for this location. Please try a different location or try again shortly.
Advertisements
Track Severe Weather on mobile